createdAt,value
2024-05-09T00:00:40.238Z,83.11
2024-05-09T00:03:09.826Z,83.16
2024-05-09T00:05:38.401Z,83.42
2024-05-09T00:08:06.282Z,83.68
2024-05-09T00:10:37.029Z,83.36
2024-05-09T00:13:07.253Z,83.46
2024-05-09T00:15:34.909Z,83.44
2024-05-09T00:18:03.300Z,83.51
2024-05-09T00:20:37.572Z,83.51
2024-05-09T00:23:08.734Z,83.41
2024-05-09T00:25:36.056Z,83.51
2024-05-09T00:28:03.195Z,83.03
2024-05-09T00:30:34.902Z,83.89
2024-05-09T00:33:05.511Z,83.74
2024-05-09T00:35:33.498Z,83.80
2024-05-09T00:38:00.634Z,84.41
2024-05-09T00:40:37.651Z,84.51
2024-05-09T00:43:07.447Z,84.52
2024-05-09T00:45:34.764Z,84.75
2024-05-09T00:48:04.894Z,84.95
2024-05-09T00:50:36.706Z,84.98
2024-05-09T00:53:06.395Z,84.94
2024-05-09T00:55:35.264Z,84.78
2024-05-09T00:58:02.897Z,84.29
2024-05-09T01:00:37.861Z,84.32
2024-05-09T01:03:07.784Z,84.37
2024-05-09T01:05:35.644Z,84.45
2024-05-09T01:08:03.375Z,84.57
2024-05-09T01:10:34.655Z,84.78
2024-05-09T01:13:07.375Z,84.51
2024-05-09T01:15:35.336Z,84.30
2024-05-09T01:18:13.138Z,84.49
2024-05-09T01:20:43.846Z,84.72
2024-05-09T01:23:14.403Z,84.46
2024-05-09T01:25:43.821Z,84.45
2024-05-09T01:28:11.018Z,84.77
2024-05-09T01:30:38.502Z,85.00
2024-05-09T01:33:08.480Z,85.04
2024-05-09T01:35:37.443Z,85.19
2024-05-09T01:38:07.758Z,85.20
2024-05-09T01:40:38.779Z,85.14
2024-05-09T01:43:09.082Z,85.34
2024-05-09T01:45:37.006Z,85.41
2024-05-09T01:48:04.338Z,85.33
2024-05-09T01:53:01.763Z,84.78
2024-05-09T01:55:28.429Z,84.81
2024-05-09T01:57:55.277Z,85.01
2024-05-09T02:00:33.794Z,84.93
2024-05-09T02:03:10.051Z,84.92
2024-05-09T02:05:37.838Z,84.68
2024-05-09T02:08:05.265Z,84.89
2024-05-09T02:10:33.227Z,84.97
2024-05-09T02:13:00.725Z,84.87
2024-05-09T02:15:27.636Z,85.12
2024-05-09T02:17:54.586Z,85.29
2024-05-09T02:20:30.266Z,85.44
2024-05-09T02:23:04.636Z,85.54
2024-05-09T02:25:32.416Z,85.35
2024-05-09T02:27:59.497Z,85.39
2024-05-09T02:30:36.168Z,85.41
2024-05-09T02:33:07.914Z,85.56
2024-05-09T02:35:35.340Z,85.12
2024-05-09T02:38:02.324Z,85.16
2024-05-09T02:40:36.470Z,85.52
2024-05-09T02:43:06.826Z,85.58
2024-05-09T02:45:33.802Z,85.32
2024-05-09T02:48:01.701Z,85.77
2024-05-09T02:50:37.002Z,85.83
2024-05-09T02:53:10.149Z,85.45
2024-05-09T02:55:41.365Z,85.71
2024-05-09T02:58:11.835Z,86.45
2024-05-09T03:00:41.726Z,86.35
2024-05-09T03:03:13.407Z,85.83
2024-05-09T03:05:43.357Z,85.55
2024-05-09T03:08:10.728Z,85.45
2024-05-09T03:10:39.074Z,85.50
2024-05-09T03:13:16.063Z,85.10
2024-05-09T03:15:44.495Z,85.38
2024-05-09T03:18:12.307Z,85.19
2024-05-09T03:20:40.084Z,85.34
2024-05-09T03:23:09.345Z,85.40
2024-05-09T03:25:37.814Z,85.06
2024-05-09T03:28:05.311Z,85.05
2024-05-09T03:30:39.927Z,85.19
2024-05-09T03:33:15.363Z,85.44
2024-05-09T03:35:45.991Z,85.52
2024-05-09T03:38:13.098Z,85.33
2024-05-09T03:40:46.777Z,85.20
2024-05-09T03:43:14.313Z,84.86
2024-05-09T03:45:42.494Z,84.92
2024-05-09T03:48:09.522Z,85.13
2024-05-09T03:50:37.139Z,85.18
2024-05-09T03:53:04.705Z,84.97
2024-05-09T03:55:31.921Z,84.65
2024-05-09T03:57:59.056Z,84.44
2024-05-09T04:00:34.412Z,84.73
2024-05-09T04:03:06.100Z,84.93
2024-05-09T04:05:35.020Z,84.73
2024-05-09T04:08:02.233Z,84.20
2024-05-09T04:10:33.535Z,84.35
2024-05-09T04:13:02.367Z,84.53
2024-05-09T04:15:29.514Z,84.41
2024-05-09T04:17:56.648Z,84.38
2024-05-09T04:20:33.947Z,83.68
2024-05-09T04:23:14.638Z,82.86
2024-05-09T04:25:46.269Z,82.62
2024-05-09T04:28:13.678Z,82.35
2024-05-09T04:30:41.719Z,81.91
2024-05-09T04:33:12.145Z,81.29
2024-05-09T04:35:45.002Z,81.10
2024-05-09T04:38:14.290Z,79.59
2024-05-09T04:40:41.953Z,78.41
2024-05-09T04:43:15.402Z,77.04
2024-05-09T04:45:43.425Z,75.56
2024-05-09T04:48:10.332Z,73.04
2024-05-09T04:50:39.160Z,70.61
2024-05-09T04:53:10.999Z,68.67
2024-05-09T04:55:40.037Z,67.04
2024-05-09T04:58:08.864Z,66.24
2024-05-09T05:00:38.895Z,66.56
2024-05-09T05:03:14.433Z,67.05
2024-05-09T05:05:44.826Z,67.71
2024-05-09T05:08:17.656Z,68.35
2024-05-09T05:10:46.055Z,69.36
2024-05-09T05:13:20.573Z,70.09
2024-05-09T05:15:57.528Z,70.83
2024-05-09T05:18:26.500Z,71.39
2024-05-09T05:20:54.800Z,72.31
2024-05-09T05:23:22.492Z,72.70
2024-05-09T05:25:50.433Z,73.26
2024-05-09T05:28:17.432Z,73.67
2024-05-09T05:30:45.300Z,74.06
2024-05-09T05:33:14.496Z,74.51
2024-05-09T05:35:42.289Z,74.57
2024-05-09T05:38:11.636Z,74.71
2024-05-09T05:40:39.639Z,74.73
2024-05-09T05:43:16.372Z,74.12
2024-05-09T05:45:46.536Z,73.90
2024-05-09T05:48:16.259Z,73.41
2024-05-09T05:50:43.928Z,73.17
2024-05-09T05:53:10.976Z,73.08
2024-05-09T05:55:39.388Z,72.92
2024-05-09T05:58:10.541Z,72.45
2024-05-09T06:00:39.495Z,71.98
2024-05-09T06:03:12.299Z,71.11
2024-05-09T06:05:40.220Z,71.61
2024-05-09T06:08:07.830Z,70.32
2024-05-09T06:10:39.330Z,70.95
2024-05-09T06:13:10.596Z,70.72
2024-05-09T06:15:37.503Z,70.37
2024-05-09T06:18:08.870Z,70.59
2024-05-09T06:20:38.029Z,70.09
2024-05-09T06:23:09.713Z,69.97
2024-05-09T06:25:38.000Z,69.21
2024-05-09T06:28:05.264Z,68.68
2024-05-09T06:30:39.342Z,68.37
2024-05-09T06:33:10.674Z,68.00
2024-05-09T06:35:39.526Z,68.02
2024-05-09T06:38:09.247Z,67.77
2024-05-09T06:40:39.035Z,67.86
2024-05-09T06:43:18.928Z,66.66
2024-05-09T06:45:54.055Z,66.60
2024-05-09T06:48:22.827Z,66.61
2024-05-09T06:50:50.373Z,66.15
2024-05-09T06:53:20.434Z,66.34
2024-05-09T06:55:47.419Z,66.48
2024-05-09T06:58:16.414Z,65.71
2024-05-09T07:00:43.545Z,66.04
2024-05-09T07:03:11.655Z,64.80
2024-05-09T07:05:39.729Z,64.52
2024-05-09T07:08:06.899Z,61.70
2024-05-09T07:10:36.300Z,62.52
2024-05-09T07:13:08.419Z,62.45
2024-05-09T07:15:35.226Z,63.21
2024-05-09T07:18:08.514Z,63.79
2024-05-09T07:20:35.425Z,62.87
2024-05-09T07:23:03.227Z,63.08
2024-05-09T07:25:30.607Z,62.59
2024-05-09T07:27:57.496Z,62.29
2024-05-09T07:30:32.560Z,61.87
2024-05-09T07:33:02.313Z,61.70
2024-05-09T07:35:29.794Z,61.09
2024-05-09T07:37:56.749Z,60.41
2024-05-09T07:40:33.324Z,60.17
2024-05-09T07:43:13.380Z,59.42
2024-05-09T07:45:49.906Z,60.30
2024-05-09T07:53:39.424Z,60.21
2024-05-09T07:56:10.226Z,60.54
2024-05-09T07:58:38.838Z,59.81
2024-05-09T08:01:05.970Z,58.22
2024-05-09T08:03:34.282Z,58.07
2024-05-09T08:06:01.455Z,57.65
2024-05-09T08:08:28.156Z,58.50
2024-05-09T08:10:55.030Z,58.47
2024-05-09T08:13:22.087Z,57.81
2024-05-09T08:15:49.029Z,56.66
2024-05-09T08:18:15.995Z,55.32
2024-05-09T08:20:42.761Z,54.31
2024-05-09T08:23:11.207Z,54.07
2024-05-09T08:25:38.767Z,57.11
2024-05-09T08:28:06.101Z,57.08
2024-05-09T08:30:36.953Z,56.34
2024-05-09T08:33:06.382Z,55.18
2024-05-09T08:35:34.384Z,55.07
2024-05-09T08:38:06.055Z,55.32
2024-05-09T08:40:36.175Z,54.43
2024-05-09T08:43:10.295Z,53.88
2024-05-09T08:45:43.141Z,54.01
2024-05-09T08:48:12.686Z,51.73
2024-05-09T08:50:43.048Z,52.81
2024-05-09T08:53:10.139Z,52.42
2024-05-09T08:55:40.602Z,51.51
2024-05-09T08:58:14.028Z,51.79
2024-05-09T09:00:43.207Z,51.92
2024-05-09T09:03:15.130Z,52.78
2024-05-09T09:05:59.296Z,52.46
2024-05-09T09:08:26.376Z,52.71
2024-05-09T09:10:54.587Z,52.32
2024-05-09T09:13:21.615Z,51.76
2024-05-09T09:15:49.431Z,50.77
2024-05-09T09:18:17.487Z,51.61
2024-05-09T09:20:45.272Z,51.56
2024-05-09T09:23:12.038Z,51.50
2024-05-09T09:25:42.348Z,51.48
2024-05-09T09:28:09.750Z,51.27
2024-05-09T09:30:40.954Z,51.98
2024-05-09T09:33:12.003Z,50.09
2024-05-09T09:35:40.546Z,50.25
2024-05-09T09:38:10.088Z,50.94
2024-05-09T09:40:42.992Z,51.18
2024-05-09T09:43:21.958Z,50.75
2024-05-09T09:45:52.639Z,51.28
2024-05-09T09:48:21.284Z,51.69
2024-05-09T09:50:54.409Z,50.59
2024-05-09T09:53:23.005Z,51.11
2024-05-09T09:55:51.217Z,50.87
2024-05-09T09:58:18.367Z,50.46
2024-05-09T10:00:45.612Z,49.58
2024-05-09T10:03:13.060Z,50.21
2024-05-09T10:05:43.251Z,49.28
2024-05-09T10:08:12.951Z,49.33
2024-05-09T10:10:40.322Z,49.29
2024-05-09T10:13:08.475Z,49.49
2024-05-09T10:15:51.716Z,48.67
2024-05-09T10:18:27.142Z,48.28
2024-05-09T10:20:56.391Z,49.05
2024-05-09T10:23:27.145Z,47.21
2024-05-09T10:26:00.156Z,49.37
2024-05-09T10:28:28.466Z,48.90
2024-05-09T10:31:15.887Z,48.53
2024-05-09T10:33:52.021Z,46.87
2024-05-09T10:36:21.732Z,45.74
2024-05-09T10:38:50.067Z,45.97
2024-05-09T10:41:17.585Z,46.80
2024-05-09T10:43:44.383Z,44.54
2024-05-09T10:46:11.948Z,45.46
2024-05-09T10:48:41.612Z,46.16
2024-05-09T10:51:09.221Z,46.16
2024-05-09T10:53:43.584Z,46.57
2024-05-09T10:56:11.450Z,45.69
2024-05-09T10:58:38.181Z,46.21
2024-05-09T11:01:07.068Z,46.50
2024-05-09T11:03:35.324Z,46.52
2024-05-09T11:06:02.845Z,43.65
2024-05-09T11:08:32.287Z,42.83
2024-05-09T11:11:00.161Z,42.76
2024-05-09T11:13:31.046Z,42.79
2024-05-09T11:15:59.569Z,42.90
2024-05-09T11:18:30.807Z,42.26
2024-05-09T11:21:00.740Z,40.86
2024-05-09T11:23:27.976Z,39.78
2024-05-09T11:25:56.081Z,39.72
2024-05-09T11:28:23.486Z,40.22
2024-05-09T11:30:51.061Z,38.52
2024-05-09T11:33:21.782Z,40.41
2024-05-09T11:35:48.753Z,41.37
2024-05-09T11:38:15.727Z,40.85
2024-05-09T11:40:42.620Z,41.57
2024-05-09T11:43:09.554Z,40.92
2024-05-09T11:45:36.350Z,40.45
2024-05-09T11:48:04.007Z,41.60
2024-05-09T11:50:35.302Z,41.22
2024-05-09T11:53:03.033Z,41.59
2024-05-09T11:55:30.756Z,41.74
2024-05-09T11:57:57.911Z,41.83
2024-05-09T12:00:33.199Z,40.32
2024-05-09T12:03:05.413Z,41.20
2024-05-09T12:05:33.782Z,41.46
2024-05-09T12:08:01.957Z,42.10
2024-05-09T12:10:33.562Z,41.99
2024-05-09T12:13:04.926Z,42.86
2024-05-09T12:15:33.995Z,42.33
2024-05-09T12:18:03.596Z,41.80
2024-05-09T12:20:36.828Z,41.15
2024-05-09T12:23:10.285Z,41.09
2024-05-09T12:25:39.170Z,41.40
2024-05-09T12:28:07.294Z,41.45
2024-05-09T12:30:38.565Z,41.79
2024-05-09T12:33:08.847Z,39.87
2024-05-09T12:35:36.247Z,39.23
2024-05-09T12:38:02.969Z,40.60
2024-05-09T12:40:35.936Z,41.12
2024-05-09T12:43:09.294Z,41.55
2024-05-09T12:45:37.731Z,40.23
2024-05-09T12:48:07.494Z,40.76
2024-05-09T12:50:35.017Z,39.44
2024-05-09T12:53:03.657Z,39.00
2024-05-09T12:55:43.807Z,38.38
2024-05-09T12:58:19.144Z,37.81
2024-05-09T13:00:46.614Z,39.02
2024-05-09T13:03:13.803Z,38.13
2024-05-09T13:05:46.826Z,39.06
2024-05-09T13:08:13.937Z,38.83
2024-05-09T13:10:41.320Z,38.49
2024-05-09T13:13:11.690Z,38.07
2024-05-09T13:15:38.959Z,38.23
2024-05-09T13:18:06.948Z,37.00
2024-05-09T13:20:35.698Z,36.99
2024-05-09T13:23:05.159Z,37.23
2024-05-09T13:25:34.491Z,37.76
2024-05-09T13:28:01.997Z,37.54
2024-05-09T13:30:37.715Z,37.44
2024-05-09T13:33:08.746Z,36.22
2024-05-09T13:35:36.212Z,36.73
2024-05-09T13:38:04.831Z,36.42
2024-05-09T13:40:34.857Z,36.90
2024-05-09T13:43:06.413Z,37.46
2024-05-09T13:45:33.768Z,38.03
2024-05-09T13:48:02.562Z,37.18
2024-05-09T13:50:34.517Z,38.11
2024-05-09T13:53:06.008Z,39.38
2024-05-09T13:55:34.012Z,39.58
2024-05-09T13:58:01.346Z,39.21
2024-05-09T14:00:41.668Z,39.81
2024-05-09T14:03:14.238Z,39.76
2024-05-09T14:05:41.483Z,39.07
2024-05-09T14:08:08.730Z,39.50
2024-05-09T14:10:36.051Z,41.16
2024-05-09T14:13:03.269Z,41.73
2024-05-09T14:15:30.398Z,41.07
2024-05-09T14:17:57.323Z,40.99
2024-05-09T14:20:30.861Z,41.17
2024-05-09T14:23:01.827Z,41.52
2024-05-09T14:25:30.480Z,42.27
2024-05-09T14:27:58.138Z,41.36
2024-05-09T14:30:34.070Z,39.66
2024-05-09T14:33:05.453Z,40.88
2024-05-09T14:35:32.961Z,41.07
2024-05-09T14:37:59.790Z,39.03
2024-05-09T14:40:36.932Z,39.49
2024-05-09T14:43:09.757Z,40.49
2024-05-09T14:45:36.552Z,40.15
2024-05-09T14:48:04.094Z,40.85
2024-05-09T14:50:36.629Z,41.80
2024-05-09T14:53:07.510Z,42.55
2024-05-09T14:55:37.339Z,43.27
2024-05-09T14:58:08.640Z,42.51
2024-05-09T15:00:47.700Z,43.71
2024-05-09T15:03:21.534Z,43.82
2024-05-09T15:05:49.149Z,44.39
2024-05-09T15:08:18.129Z,43.94
2024-05-09T15:10:45.478Z,44.60
2024-05-09T15:13:15.442Z,45.19
2024-05-09T15:15:43.355Z,45.67
2024-05-09T15:18:10.223Z,46.41
2024-05-09T15:20:37.892Z,47.41
2024-05-09T15:23:06.391Z,48.23
2024-05-09T15:25:35.149Z,47.97
2024-05-09T15:28:02.214Z,47.56
2024-05-09T15:30:32.138Z,47.54
2024-05-09T15:33:03.843Z,48.34
2024-05-09T15:35:31.856Z,47.79
2024-05-09T15:37:59.010Z,48.43
2024-05-09T15:40:35.173Z,48.15
2024-05-09T15:43:07.491Z,48.01
2024-05-09T15:45:34.907Z,48.80
2024-05-09T15:48:03.116Z,49.69
2024-05-09T15:50:37.184Z,48.84
2024-05-09T15:53:08.561Z,49.74
2024-05-09T15:55:36.317Z,49.60
2024-05-09T15:58:04.571Z,49.06
2024-05-09T16:00:37.783Z,49.57
2024-05-09T16:03:09.408Z,49.41
2024-05-09T16:05:37.459Z,49.76
2024-05-09T16:08:05.504Z,49.63
2024-05-09T16:10:34.248Z,50.36
2024-05-09T16:13:02.487Z,50.13
2024-05-09T16:15:30.286Z,49.91
2024-05-09T16:17:57.388Z,50.49
2024-05-09T16:22:54.559Z,49.88
2024-05-09T16:25:21.397Z,49.49
2024-05-09T16:27:50.848Z,49.15
2024-05-09T16:30:24.838Z,49.03
2024-05-09T16:32:58.564Z,49.15
2024-05-09T16:35:25.401Z,49.16
2024-05-09T16:37:52.283Z,49.93
2024-05-09T16:40:25.838Z,50.31
2024-05-09T16:43:03.558Z,50.71
2024-05-09T16:45:30.737Z,50.57
2024-05-09T16:47:57.876Z,51.12
2024-05-09T16:50:29.526Z,51.10
2024-05-09T16:52:59.954Z,50.57
2024-05-09T16:55:27.349Z,50.01
2024-05-09T16:57:55.018Z,50.05
2024-05-09T17:00:31.769Z,50.33
2024-05-09T17:03:07.453Z,50.91
2024-05-09T17:05:34.899Z,50.03
2024-05-09T17:08:02.742Z,50.49
2024-05-09T17:10:33.409Z,51.02
2024-05-09T17:13:03.223Z,51.70
2024-05-09T17:15:32.023Z,50.88
2024-05-09T17:18:02.330Z,51.28
2024-05-09T17:20:34.073Z,51.96
2024-05-09T17:23:04.964Z,52.06
2024-05-09T17:25:32.521Z,52.86
2024-05-09T17:28:06.369Z,53.39
2024-05-09T17:30:36.954Z,53.31
2024-05-09T17:33:07.482Z,53.77
2024-05-09T17:35:35.696Z,54.79
2024-05-09T17:38:02.605Z,54.72
2024-05-09T17:40:33.784Z,54.09
2024-05-09T17:43:04.425Z,54.42
2024-05-09T17:45:32.171Z,55.21
2024-05-09T17:47:59.979Z,55.60
2024-05-09T17:50:34.842Z,56.25
2024-05-09T17:53:04.341Z,57.54
2024-05-09T17:55:31.429Z,57.44
2024-05-09T17:57:58.394Z,57.53
2024-05-09T18:00:36.336Z,57.95
2024-05-09T18:03:07.287Z,58.48
2024-05-09T18:05:36.495Z,58.94
2024-05-09T18:08:04.045Z,59.12
2024-05-09T18:10:36.647Z,59.35
2024-05-09T18:13:07.202Z,59.54
2024-05-09T18:15:34.791Z,59.76
2024-05-09T18:18:02.677Z,59.95
2024-05-09T18:20:38.131Z,59.87
2024-05-09T18:23:10.970Z,60.11
2024-05-09T18:25:38.045Z,60.23
2024-05-09T18:28:05.678Z,60.16
2024-05-09T18:30:35.517Z,60.18
2024-05-09T18:33:06.406Z,60.17
2024-05-09T18:35:34.785Z,60.53
2024-05-09T18:38:01.658Z,60.00
2024-05-09T18:40:34.153Z,60.41
2024-05-09T18:43:06.141Z,60.67
2024-05-09T18:45:34.689Z,60.84
2024-05-09T18:48:01.553Z,61.01
2024-05-09T18:50:34.919Z,61.47
2024-05-09T18:53:12.915Z,60.92
2024-05-09T18:55:41.329Z,61.11
2024-05-09T18:58:08.247Z,61.69
2024-05-09T19:00:38.460Z,62.11
2024-05-09T19:03:10.287Z,62.41
2024-05-09T19:05:40.272Z,62.15
2024-05-09T19:08:07.818Z,63.52
2024-05-09T19:10:36.078Z,64.81
2024-05-09T19:13:08.270Z,65.58
2024-05-09T19:15:39.358Z,66.20
2024-05-09T19:18:07.171Z,67.01
2024-05-09T19:20:36.081Z,67.65
2024-05-09T19:23:04.703Z,68.20
2024-05-09T19:25:32.271Z,68.43
2024-05-09T19:27:59.861Z,68.96
2024-05-09T19:30:36.370Z,69.68
2024-05-09T19:33:07.566Z,69.57
2024-05-09T19:35:34.323Z,68.57
2024-05-09T19:38:01.354Z,68.44
2024-05-09T19:40:32.142Z,68.92
2024-05-09T19:43:02.014Z,69.22
2024-05-09T19:45:29.484Z,69.68
2024-05-09T19:47:56.736Z,68.97
2024-05-09T19:50:32.226Z,69.42
2024-05-09T19:53:06.939Z,70.27
2024-05-09T19:55:33.937Z,70.10
2024-05-09T19:58:04.907Z,70.29
2024-05-09T20:00:39.758Z,70.76
2024-05-09T20:03:09.283Z,71.00
2024-05-09T20:05:37.153Z,70.69
2024-05-09T20:08:04.766Z,71.60
2024-05-09T20:10:33.723Z,71.41
2024-05-09T20:13:02.854Z,71.62
2024-05-09T20:15:30.742Z,71.91
2024-05-09T20:17:57.808Z,72.48
2024-05-09T20:20:33.597Z,72.68
2024-05-09T20:23:08.781Z,72.02
2024-05-09T20:25:35.633Z,71.51
2024-05-09T20:28:02.674Z,70.64
2024-05-09T20:30:32.852Z,70.86
2024-05-09T20:33:07.224Z,71.54
2024-05-09T20:35:35.497Z,71.01
2024-05-09T20:38:03.305Z,71.22
2024-05-09T20:40:34.771Z,71.57
2024-05-09T20:43:05.259Z,71.65
2024-05-09T20:45:32.284Z,71.15
2024-05-09T20:47:59.233Z,70.82
2024-05-09T20:50:36.275Z,70.49
2024-05-09T20:53:09.008Z,70.70
2024-05-09T20:55:36.015Z,69.76
2024-05-09T20:58:02.890Z,70.70
2024-05-09T21:00:37.663Z,70.59
2024-05-09T21:03:08.176Z,69.95
2024-05-09T21:05:35.555Z,69.95
2024-05-09T21:08:05.219Z,69.95
2024-05-09T21:10:33.835Z,69.63
2024-05-09T21:13:03.116Z,70.07
2024-05-09T21:15:30.816Z,69.85
2024-05-09T21:17:57.834Z,70.23
2024-05-09T21:20:30.946Z,69.97
2024-05-09T21:22:59.510Z,70.50
2024-05-09T21:25:26.250Z,70.50
2024-05-09T21:27:53.329Z,70.84
2024-05-09T21:30:31.411Z,71.15
2024-05-09T21:33:06.031Z,71.92
2024-05-09T21:35:32.859Z,71.41
2024-05-09T21:37:59.696Z,71.68
2024-05-09T21:40:33.467Z,72.58
2024-05-09T21:43:02.487Z,72.85
2024-05-09T21:45:29.506Z,72.77
2024-05-09T21:47:56.611Z,73.04
2024-05-09T21:50:31.606Z,72.79
2024-05-09T21:53:05.528Z,72.77
2024-05-09T21:55:32.283Z,72.95
2024-05-09T21:57:59.028Z,73.24
2024-05-09T22:00:34.470Z,73.40
2024-05-09T22:03:05.206Z,73.42
2024-05-09T22:05:32.231Z,72.98
2024-05-09T22:07:59.072Z,73.97
2024-05-09T22:10:31.156Z,73.10
2024-05-09T22:13:01.700Z,74.06
2024-05-09T22:15:28.630Z,74.62
2024-05-09T22:17:56.446Z,75.13
2024-05-09T22:20:32.868Z,74.57
2024-05-09T22:23:04.371Z,74.09
2024-05-09T22:25:32.244Z,74.82
2024-05-09T22:28:00.598Z,74.99
2024-05-09T22:30:34.926Z,74.94
2024-05-09T22:33:06.447Z,75.37
2024-05-09T22:35:33.502Z,75.80
2024-05-09T22:38:00.410Z,75.69
2024-05-09T22:42:56.865Z,76.19
2024-05-09T22:45:23.656Z,76.27
2024-05-09T22:47:50.488Z,76.75
2024-05-09T22:50:26.226Z,76.34
2024-05-09T22:52:54.180Z,77.00
2024-05-09T22:55:21.015Z,76.86
2024-05-09T22:57:47.847Z,77.61
2024-05-09T23:00:16.085Z,78.06
2024-05-09T23:02:43.202Z,78.16
2024-05-09T23:05:10.386Z,78.51
2024-05-09T23:07:37.502Z,77.75
2024-05-09T23:10:10.825Z,77.77
2024-05-09T23:12:40.113Z,77.80
2024-05-09T23:15:07.196Z,78.42
2024-05-09T23:17:34.031Z,77.78
2024-05-09T23:20:00.849Z,78.10
2024-05-09T23:22:27.656Z,78.11
2024-05-09T23:24:54.465Z,77.91
2024-05-09T23:27:21.493Z,78.09
2024-05-09T23:29:48.262Z,78.25
2024-05-09T23:32:14.988Z,78.55
2024-05-09T23:34:41.794Z,77.90
2024-05-09T23:37:10.803Z,78.08
2024-05-09T23:39:37.708Z,78.48
2024-05-09T23:42:04.814Z,78.77
2024-05-09T23:44:32.763Z,79.18
2024-05-09T23:46:59.518Z,78.66
2024-05-09T23:49:26.331Z,78.51
2024-05-09T23:51:53.129Z,78.72
2024-05-09T23:54:19.928Z,79.07
2024-05-09T23:56:46.720Z,78.76
2024-05-09T23:59:13.475Z,78.96
